Time;durP1;ratioP1;P1;durP2;ratioP2;P2;SDS_P1;SDS_P2;PMS_P1;PMS_P2;Temp;Humidity;BMP_temperature;BMP_pressure;BME280_temperature;BME280_humidity;BME280_pressure;Samples;Min_cycle;Max_cycle;Signal;HPM_P1;HPM_P2
2022/05/20 00:00:48;;;;;;;8.48;2.17;;;;;;;14.03;100.00;101033.63;5148006;27;20047;-82
2022/05/20 00:03:16;;;;;;;8.93;2.00;;;;;;;14.19;100.00;101044.28;5145233;27;20077;-83
2022/05/20 00:05:43;;;;;;;5.70;1.73;;;;;;;14.18;100.00;101029.38;5132604;27;20458;-83
2022/05/20 00:08:10;;;;;;;8.18;1.70;;;;;;;14.16;100.00;101021.56;5133932;27;20058;-83
2022/05/20 00:10:37;;;;;;;8.02;2.00;;;;;;;14.12;100.00;101014.75;5131979;27;20116;-83
2022/05/20 00:13:04;;;;;;;5.38;1.45;;;;;;;14.47;100.00;101013.97;5150114;27;20046;-83
2022/05/20 00:15:31;;;;;;;7.82;2.08;;;;;;;14.50;100.00;100998.84;5153512;27;20046;-82
2022/05/20 00:17:58;;;;;;;8.52;1.90;;;;;;;14.42;100.00;101025.56;5139203;27;20043;-83
2022/05/20 00:20:27;;;;;;;6.65;1.40;;;;;;;14.47;100.00;101022.72;5136537;27;20043;-82
2022/05/20 00:22:53;;;;;;;7.00;1.50;;;;;;;14.34;100.00;101011.94;5132147;27;20053;-83
2022/05/20 00:28:08;;;;;;;5.85;1.52;;;;;;;14.38;100.00;101010.84;5133065;27;20051;-83
2022/05/20 00:30:35;;;;;;;6.43;1.85;;;;;;;14.44;100.00;100978.91;5132142;27;20452;-83
2022/05/20 00:33:02;;;;;;;6.80;1.75;;;;;;;14.71;100.00;100996.09;5138175;27;20057;-82
2022/05/20 00:35:28;;;;;;;7.20;1.65;;;;;;;14.54;100.00;100984.59;5152331;27;20043;-81
2022/05/20 00:37:55;;;;;;;7.47;1.60;;;;;;;14.20;100.00;100999.44;5132741;27;20055;-82
2022/05/20 00:40:24;;;;;;;6.00;1.63;;;;;;;14.10;100.00;100995.53;5146502;27;20042;-82
2022/05/20 00:42:51;;;;;;;5.97;1.63;;;;;;;14.03;100.00;100973.06;5141070;27;20047;-83
2022/05/20 00:45:18;;;;;;;5.13;1.40;;;;;;;14.47;100.00;100992.91;5152729;27;20054;-82
2022/05/20 00:47:45;;;;;;;6.07;1.58;;;;;;;14.30;100.00;100980.53;5144279;27;20051;-82
2022/05/20 00:50:15;;;;;;;6.93;1.75;;;;;;;14.26;100.00;100950.03;5131624;27;20053;-82
2022/05/20 00:52:48;;;;;;;8.38;1.92;;;;;;;14.47;100.00;100988.47;5133302;27;20069;-82
2022/05/20 00:55:18;;;;;;;9.07;1.90;;;;;;;14.39;100.00;100980.09;5131758;27;20055;-82
2022/05/20 00:57:52;;;;;;;7.82;1.75;;;;;;;14.38;100.00;100962.59;5133724;27;20408;-83
2022/05/20 01:00:24;;;;;;;6.95;2.33;;;;;;;14.47;100.00;100970.03;5152065;27;20050;-82
2022/05/20 01:02:56;;;;;;;7.50;1.80;;;;;;;14.28;100.00;100956.06;5152418;27;20457;-82
2022/05/20 01:05:35;;;;;;;6.47;1.55;;;;;;;14.03;100.00;100942.31;5152410;27;20051;-82
2022/05/20 01:08:03;;;;;;;8.82;2.17;;;;;;;14.34;100.00;100961.00;5150689;27;20054;-82
2022/05/20 01:10:30;;;;;;;9.13;1.75;;;;;;;14.09;100.00;100954.31;5152123;27;20055;-81
2022/05/20 01:12:57;;;;;;;7.82;1.85;;;;;;;14.09;100.00;100962.22;5145722;27;20047;-82
2022/05/20 01:15:24;;;;;;;5.85;1.60;;;;;;;14.26;100.00;100939.50;5131397;27;20130;-82
2022/05/20 01:17:54;;;;;;;8.52;2.05;;;;;;;14.08;100.00;100939.47;5152705;27;20047;-82
2022/05/20 01:20:25;;;;;;;8.88;1.73;;;;;;;13.84;100.00;100944.13;5152550;27;20139;-82
2022/05/20 01:23:00;;;;;;;9.73;2.03;;;;;;;13.68;100.00;100960.63;5138970;27;20055;-82
2022/05/20 01:25:29;;;;;;;10.82;2.22;;;;;;;13.76;100.00;100935.78;5131769;28;20047;-82
2022/05/20 01:27:57;;;;;;;8.63;1.88;;;;;;;13.97;100.00;100955.78;5130734;27;20051;-82
2022/05/20 01:30:26;;;;;;;7.43;1.77;;;;;;;13.87;100.00;100954.53;5131398;28;20429;-82
2022/05/20 01:32:53;;;;;;;7.40;2.35;;;;;;;13.35;100.00;100923.63;5146330;27;20047;-82
2022/05/20 01:35:40;;;;;;;5.15;1.60;;;;;;;13.73;100.00;100931.50;5152294;27;20043;-82
2022/05/20 01:38:09;;;;;;;9.07;1.90;;;;;;;13.61;100.00;100919.75;5151615;27;20130;-83
2022/05/20 01:40:40;;;;;;;7.50;2.03;;;;;;;13.80;100.00;100939.94;5151858;27;20480;-82
2022/05/20 01:43:19;;;;;;;10.80;2.28;;;;;;;13.56;100.00;100945.44;5130690;28;20054;-82
2022/05/20 01:45:53;;;;;;;9.68;2.10;;;;;;;13.81;100.00;100958.31;5131663;27;20047;-82
2022/05/20 01:48:37;;;;;;;6.72;1.63;;;;;;;13.43;100.00;100910.97;5145095;27;20051;-82
2022/05/20 01:51:08;;;;;;;7.47;1.75;;;;;;;13.81;100.00;100960.94;5131275;28;20043;-82
2022/05/20 01:53:42;;;;;;;9.23;1.77;;;;;;;13.83;100.00;100951.19;5142114;27;20041;-82
2022/05/20 01:56:15;;;;;;;7.13;1.65;;;;;;;13.57;100.00;100952.41;5151098;27;20047;-82
2022/05/20 01:58:53;;;;;;;9.50;2.75;;;;;;;13.64;100.00;100952.97;5152440;27;20050;-82
2022/05/20 02:01:25;;;;;;;7.57;1.75;;;;;;;13.86;100.00;100943.16;5150615;27;20053;-82
2022/05/20 02:03:57;;;;;;;9.57;2.20;;;;;;;13.80;100.00;100934.69;5139524;27;20047;-82
2022/05/20 02:06:36;;;;;;;9.13;2.25;;;;;;;13.84;100.00;100952.03;5136900;27;20393;-82
2022/05/20 02:09:11;;;;;;;7.55;1.90;;;;;;;13.70;100.00;100949.19;5151078;27;20043;-82
2022/05/20 02:11:45;;;;;;;13.75;2.10;;;;;;;13.73;100.00;100942.00;5150957;27;20179;-82
2022/05/20 02:14:29;;;;;;;13.40;2.90;;;;;;;13.63;100.00;100946.88;5151592;27;20519;-83
2022/05/20 02:17:16;;;;;;;11.43;2.10;;;;;;;13.52;100.00;100937.78;5130101;27;20400;-82
2022/05/20 02:19:48;;;;;;;13.95;3.75;;;;;;;13.30;100.00;100941.38;5134422;27;20047;-83
2022/05/20 02:22:19;;;;;;;22.02;3.05;;;;;;;13.42;100.00;100946.09;5151283;27;20129;-83
2022/05/20 02:24:47;;;;;;;8.48;1.83;;;;;;;13.33;100.00;100911.47;5151678;27;20049;-82
2022/05/20 02:27:22;;;;;;;7.93;1.98;;;;;;;13.70;100.00;100942.16;5137611;27;20403;-82
2022/05/20 02:29:55;;;;;;;9.13;1.90;;;;;;;13.88;100.00;100942.22;5138285;27;20059;-83
2022/05/20 02:32:31;;;;;;;9.45;2.08;;;;;;;13.83;100.00;100921.38;5144531;27;20055;-83
2022/05/20 02:34:58;;;;;;;8.52;1.92;;;;;;;13.90;100.00;100919.28;5139491;27;20050;-83
2022/05/20 02:37:30;;;;;;;11.65;2.20;;;;;;;14.03;100.00;100933.56;5139732;27;20047;-83
2022/05/20 02:39:59;;;;;;;5.60;1.48;;;;;;;14.16;100.00;100929.41;5134631;27;21385;-83
2022/05/20 02:42:27;;;;;;;6.35;1.90;;;;;;;13.78;100.00;100923.38;5149944;27;20054;-83
2022/05/20 02:44:59;;;;;;;6.70;1.73;;;;;;;13.97;100.00;100926.84;5154733;27;20059;-82
2022/05/20 02:47:31;;;;;;;5.85;1.77;;;;;;;13.97;100.00;100916.31;5154355;27;20054;-82
2022/05/20 02:50:07;;;;;;;7.32;1.75;;;;;;;13.91;100.00;100926.28;5150369;27;20087;-82
2022/05/20 02:52:35;;;;;;;9.90;2.03;;;;;;;13.62;100.00;100931.16;5135393;27;20047;-82
2022/05/20 02:55:03;;;;;;;7.47;1.70;;;;;;;13.54;100.00;100926.25;5140760;27;20049;-82
2022/05/20 02:57:30;;;;;;;7.82;1.83;;;;;;;13.59;100.00;100926.03;5149683;27;20050;-82
2022/05/20 03:05:28;;;;;;;6.60;1.77;;;;;;;13.68;100.00;100901.91;5134718;27;20138;-82
2022/05/20 03:07:59;;;;;;;8.45;1.65;;;;;;;13.76;100.00;100898.94;5138007;27;20047;-82
2022/05/20 03:10:26;;;;;;;8.18;2.10;;;;;;;13.76;100.00;100910.31;5141728;27;20038;-83
2022/05/20 03:13:04;;;;;;;9.57;1.80;;;;;;;13.90;100.00;100900.88;5154253;27;20039;-82
2022/05/20 03:15:31;;;;;;;8.98;1.92;;;;;;;13.81;100.00;100896.91;5155511;27;20057;-83
2022/05/20 03:17:58;;;;;;;7.95;2.00;;;;;;;13.79;100.00;100894.38;5137537;27;20047;-83
2022/05/20 03:20:25;;;;;;;10.48;2.22;;;;;;;13.55;100.00;100896.38;5152126;27;20042;-82
2022/05/20 03:22:52;;;;;;;10.43;2.00;;;;;;;13.86;100.00;100906.31;5136793;27;20549;-83
2022/05/20 03:25:20;;;;;;;7.43;1.88;;;;;;;13.70;100.00;100894.78;5153816;27;20058;-83
2022/05/20 03:27:48;;;;;;;10.65;2.10;;;;;;;13.62;100.00;100862.75;5153813;27;20042;-83
2022/05/20 03:30:15;;;;;;;9.18;2.25;;;;;;;13.95;100.00;100910.28;5155103;27;20053;-83
2022/05/20 03:32:42;;;;;;;9.60;2.05;;;;;;;13.81;100.00;100904.78;5152988;27;20043;-83
2022/05/20 03:35:10;;;;;;;10.25;2.03;;;;;;;14.09;100.00;100901.66;5148424;27;20043;-83
2022/05/20 03:37:37;;;;;;;11.85;1.90;;;;;;;14.05;100.00;100902.75;5149663;27;20057;-83
2022/05/20 03:40:10;;;;;;;9.98;2.22;;;;;;;13.78;100.00;100903.19;5153247;27;20046;-83
2022/05/20 03:42:37;;;;;;;;;;;;;;;14.08;100.00;100904.38;5153577;27;20056;-82
2022/05/20 03:45:04;;;;;;;10.68;2.05;;;;;;;13.99;100.00;100900.44;5149223;27;19920;-82
2022/05/20 03:47:31;;;;;;;7.57;1.70;;;;;;;13.92;100.00;100904.31;5149897;27;20096;-82
2022/05/20 03:50:00;;;;;;;6.93;1.70;;;;;;;13.79;100.00;100872.44;5153709;27;20047;-82
2022/05/20 03:52:27;;;;;;;10.82;2.08;;;;;;;14.09;100.00;100906.94;5152990;27;20118;-82
2022/05/20 03:54:54;;;;;;;6.47;1.90;;;;;;;14.22;100.00;100892.22;5153336;27;20513;-84
2022/05/20 03:57:20;;;;;;;8.63;1.77;;;;;;;14.10;100.00;100900.75;5154508;27;20050;-82
2022/05/20 03:59:47;;;;;;;9.80;1.85;;;;;;;14.02;100.00;100895.00;5152623;27;20053;-82
2022/05/20 04:02:14;;;;;;;7.95;1.88;;;;;;;14.10;100.00;100887.59;5153403;27;20567;-81
2022/05/20 04:04:46;;;;;;;10.18;1.85;;;;;;;14.04;100.00;100880.84;5153601;27;20099;-85
2022/05/20 04:07:21;;;;;;;12.15;2.97;;;;;;;13.94;100.00;100882.22;5153004;27;20047;-82
2022/05/20 04:09:48;;;;;;;11.45;2.33;;;;;;;13.92;100.00;100873.56;5154002;27;20467;-83
2022/05/20 04:12:32;;;;;;;6.45;2.08;;;;;;;13.88;100.00;100886.94;5140701;27;20072;-82
2022/05/20 04:15:00;;;;;;;15.40;2.58;;;;;;;13.75;100.00;100908.56;5153562;27;20051;-82
2022/05/20 04:17:27;;;;;;;6.50;1.83;;;;;;;14.02;100.00;100895.88;5141267;27;20058;-82
2022/05/20 04:19:55;;;;;;;8.20;2.00;;;;;;;14.04;100.00;100893.13;5145975;27;20057;-82
2022/05/20 04:22:28;;;;;;;9.60;2.13;;;;;;;14.11;100.00;100884.03;5138190;27;20039;-83
2022/05/20 04:24:55;;;;;;;10.15;1.63;;;;;;;14.45;100.00;100890.22;5148335;27;20046;-82
2022/05/20 04:27:22;;;;;;;19.38;4.25;;;;;;;14.31;100.00;100887.44;5139566;27;20421;-82
2022/05/20 04:29:50;;;;;;;14.82;2.55;;;;;;;13.98;100.00;100870.59;5140683;27;20043;-81
2022/05/20 04:32:17;;;;;;;11.82;2.67;;;;;;;14.23;100.00;100888.66;5141612;27;20073;-82
2022/05/20 04:34:43;;;;;;;14.23;2.30;;;;;;;14.19;100.00;100833.59;5143112;27;20047;-82
2022/05/20 04:37:10;;;;;;;12.45;2.67;;;;;;;14.39;100.00;100878.19;5149528;27;20051;-82
2022/05/20 04:39:37;;;;;;;14.50;2.38;;;;;;;14.61;100.00;100877.13;5145887;27;20388;-82
2022/05/20 04:47:35;;;;;;;12.75;2.10;;;;;;;14.43;100.00;100882.41;5149018;27;20086;-82
2022/05/20 04:50:04;;;;;;;11.90;2.80;;;;;;;14.14;100.00;100904.09;5137980;27;20058;-82
2022/05/20 04:52:31;;;;;;;11.13;2.15;;;;;;;13.78;100.00;100889.19;5152100;27;20057;-82
2022/05/20 04:54:58;;;;;;;9.40;1.95;;;;;;;14.00;100.00;100905.59;5153817;27;20051;-82
2022/05/20 04:57:33;;;;;;;9.57;2.08;;;;;;;14.20;100.00;100898.50;5152415;27;20129;-82
2022/05/20 05:00:10;;;;;;;7.53;1.92;;;;;;;14.14;100.00;100870.69;5151232;27;20130;-82
2022/05/20 05:02:37;;;;;;;9.63;2.53;;;;;;;14.18;100.00;100874.91;5150445;27;20043;-82
2022/05/20 05:05:07;;;;;;;13.60;2.08;;;;;;;14.49;100.00;100880.38;5131814;27;20047;-82
2022/05/20 05:07:39;;;;;;;8.00;2.17;;;;;;;14.16;100.00;100871.47;5131092;27;20055;-82
2022/05/20 05:10:08;;;;;;;9.13;2.10;;;;;;;14.09;100.00;100835.84;5132225;27;20050;-81
2022/05/20 05:12:34;;;;;;;13.05;2.97;;;;;;;14.37;100.00;100863.41;5131950;27;20441;-82
2022/05/20 05:15:02;;;;;;;12.30;2.70;;;;;;;14.20;100.00;100888.84;5130940;27;20146;-82
2022/05/20 05:20:17;;;;;;;14.38;2.33;;;;;;;13.80;100.00;100884.69;5150542;27;20061;-82
2022/05/20 05:22:44;;;;;;;12.15;3.08;;;;;;;14.17;100.00;100867.91;5134313;27;20058;-82
2022/05/20 05:25:12;;;;;;;10.50;2.15;;;;;;;14.50;100.00;100879.44;5134735;27;20055;-82
2022/05/20 05:27:40;;;;;;;10.35;2.50;;;;;;;14.27;100.00;100873.59;5145264;27;20056;-81
2022/05/20 05:30:11;;;;;;;8.07;1.90;;;;;;;14.61;100.00;100849.00;5144417;27;20485;-82
2022/05/20 05:32:42;;;;;;;12.25;2.30;;;;;;;14.84;100.00;100870.66;5140799;27;20057;-83
2022/05/20 05:35:12;;;;;;;10.23;2.30;;;;;;;14.68;100.00;100846.03;5141210;27;20057;-83
2022/05/20 05:37:41;;;;;;;14.38;2.60;;;;;;;14.83;100.00;100866.31;5142968;27;20065;-83
2022/05/20 05:40:11;;;;;;;8.80;1.80;;;;;;;15.00;100.00;100862.78;5141069;27;20048;-83
2022/05/20 05:42:37;;;;;;;12.98;2.50;;;;;;;14.98;100.00;100852.31;5144576;27;20472;-83
2022/05/20 05:45:05;;;;;;;17.45;2.95;;;;;;;14.39;100.00;100854.47;5140023;27;20074;-83
2022/05/20 05:47:32;;;;;;;13.35;2.55;;;;;;;14.84;100.00;100848.69;5145419;27;20043;-83
2022/05/20 05:50:00;;;;;;;12.18;2.88;;;;;;;15.17;100.00;100840.75;5144211;27;20130;-83
2022/05/20 05:52:27;;;;;;;8.60;1.98;;;;;;;14.80;100.00;100824.28;5142281;27;20042;-84
2022/05/20 05:54:53;;;;;;;10.57;2.40;;;;;;;15.04;100.00;100852.91;5142931;27;20038;-84
2022/05/20 05:57:20;;;;;;;17.00;2.90;;;;;;;15.48;100.00;100846.97;5148684;27;20073;-84
2022/05/20 05:59:47;;;;;;;10.73;2.03;;;;;;;16.48;100.00;100854.34;5148710;27;20051;-86
2022/05/20 06:02:13;;;;;;;14.10;3.22;;;;;;;16.56;100.00;100841.53;5147507;27;20076;-86
2022/05/20 06:04:41;;;;;;;11.85;2.47;;;;;;;16.32;100.00;100844.72;5147139;27;20050;-86
2022/05/20 06:07:08;;;;;;;15.30;3.17;;;;;;;16.05;100.00;100838.44;5146961;27;20070;-82
2022/05/20 06:09:35;;;;;;;16.33;2.80;;;;;;;16.20;100.00;100839.31;5148113;27;20053;-87
2022/05/20 06:12:02;;;;;;;11.88;2.42;;;;;;;17.13;100.00;100821.31;5145480;27;20504;-87
2022/05/20 06:14:29;;;;;;;7.22;1.70;;;;;;;18.00;100.00;100801.50;5150265;27;20050;-87
2022/05/20 06:16:56;;;;;;;19.50;2.97;;;;;;;17.12;100.00;100848.72;5144125;27;20055;-87
2022/05/20 06:19:22;;;;;;;10.20;1.92;;;;;;;17.27;100.00;100794.81;5146272;27;20043;-86
2022/05/20 06:21:49;;;;;;;10.32;2.15;;;;;;;17.42;100.00;100809.72;5147614;27;20051;-88
2022/05/20 06:24:22;;;;;;;10.98;2.35;;;;;;;18.45;100.00;100832.91;5146631;27;20082;-87
2022/05/20 06:26:49;;;;;;;10.00;2.10;;;;;;;18.66;100.00;100823.47;5146717;27;20049;-87
2022/05/20 06:29:16;;;;;;;11.10;2.25;;;;;;;18.09;100.00;100816.78;5147554;27;20046;-87
2022/05/20 06:31:43;;;;;;;12.73;2.30;;;;;;;18.48;100.00;100820.28;5145890;27;20043;-87
2022/05/20 06:34:10;;;;;;;9.52;2.13;;;;;;;19.02;92.00;100797.97;5144073;27;20728;-88
2022/05/20 06:42:08;;;;;;;16.05;2.63;;;;;;;19.51;88.67;100814.75;5144773;27;20061;-88
2022/05/20 06:44:35;;;;;;;7.90;2.00;;;;;;;19.54;87.11;100799.44;5144535;27;20134;-88
2022/05/20 06:47:01;;;;;;;14.02;2.55;;;;;;;19.88;85.75;100810.25;5141812;27;20090;-88
2022/05/20 06:49:28;;;;;;;9.18;2.38;;;;;;;18.18;100.00;100817.94;5144523;27;20051;-88
2022/05/20 06:51:56;;;;;;;11.48;2.03;;;;;;;18.90;96.64;100807.66;5148338;27;20047;-85
2022/05/20 06:54:23;;;;;;;10.63;2.15;;;;;;;18.26;100.00;100785.66;5142573;27;20452;-88
2022/05/20 06:56:50;;;;;;;12.35;3.05;;;;;;;18.01;100.00;100790.81;5144409;27;20051;-88
2022/05/20 06:59:17;;;;;;;12.55;2.42;;;;;;;18.19;100.00;100787.88;5141038;27;20059;-85
2022/05/20 07:01:44;;;;;;;9.48;2.13;;;;;;;19.33;92.14;100796.56;5154426;27;20050;-87
2022/05/20 07:04:30;;;;;;;9.32;1.60;;;;;;;19.57;85.85;100801.03;5155403;27;20058;-88
2022/05/20 07:06:59;;;;;;;9.45;1.95;;;;;;;19.31;91.83;100802.97;5144213;27;20053;-87
2022/05/20 07:09:26;;;;;;;10.68;2.13;;;;;;;18.26;95.09;100802.38;5147547;27;20042;-88
2022/05/20 07:11:53;;;;;;;11.38;2.63;;;;;;;18.76;95.62;100794.50;5155454;27;20078;-88
2022/05/20 07:14:19;;;;;;;7.20;1.65;;;;;;;18.86;94.99;100797.38;5155343;27;20522;-88
2022/05/20 07:16:46;;;;;;;11.70;2.50;;;;;;;18.32;95.61;100807.25;5144944;27;20054;-88
2022/05/20 07:19:13;;;;;;;10.27;1.77;;;;;;;19.01;93.11;100792.78;5134707;27;20075;-88
2022/05/20 07:21:40;;;;;;;9.00;1.55;;;;;;;18.80;89.59;100790.66;5155035;27;20042;-88
2022/05/20 07:24:07;;;;;;;14.45;2.08;;;;;;;18.44;97.33;100794.13;5139085;27;20047;-88
2022/05/20 07:26:35;;;;;;;12.27;2.42;;;;;;;17.83;95.83;100798.19;5133071;27;20072;-87
2022/05/20 07:29:04;;;;;;;11.50;2.63;;;;;;;17.68;99.29;100783.31;5133967;27;21166;-87
2022/05/20 07:31:31;;;;;;;8.07;1.85;;;;;;;17.85;100.00;100784.84;5134347;27;20130;-87
2022/05/20 07:33:57;;;;;;;12.73;1.90;;;;;;;17.70;100.00;100777.91;5148724;27;20046;-87
2022/05/20 07:36:24;;;;;;;11.25;2.25;;;;;;;17.61;100.00;100782.84;5148416;27;20043;-87
2022/05/20 07:38:51;;;;;;;16.65;2.75;;;;;;;17.40;100.00;100784.28;5142490;27;20050;-87
2022/05/20 07:41:19;;;;;;;13.00;2.40;;;;;;;17.03;100.00;100776.06;5155173;27;20049;-87
2022/05/20 07:43:46;;;;;;;13.35;2.30;;;;;;;17.41;100.00;100751.59;5158115;27;20070;-91
2022/05/20 07:46:13;;;;;;;13.05;2.50;;;;;;;18.29;100.00;100758.91;5149508;27;20051;-90
2022/05/20 07:48:40;;;;;;;13.57;2.30;;;;;;;19.13;94.70;100781.28;5133905;27;20136;-90
2022/05/20 07:51:14;;;;;;;9.27;2.15;;;;;;;19.37;92.93;100757.41;5132955;27;20051;-89
2022/05/20 07:53:45;;;;;;;9.60;2.05;;;;;;;19.09;90.88;100779.81;5150603;27;20047;-89
2022/05/20 07:56:18;;;;;;;12.45;2.80;;;;;;;18.84;88.65;100767.44;5154052;27;20373;-89
2022/05/20 07:58:49;;;;;;;9.70;2.22;;;;;;;19.40;89.14;100756.31;5154709;27;20491;-89
2022/05/20 08:01:25;;;;;;;12.75;1.88;;;;;;;19.45;89.86;100778.88;5153847;27;20050;-89
2022/05/20 08:06:48;;;;;;;15.10;2.30;;;;;;;17.65;100.00;100755.25;5144306;27;20392;-89
2022/05/20 08:09:14;;;;;;;11.88;2.40;;;;;;;17.54;100.00;100752.44;5155004;27;20053;-89
2022/05/20 08:11:41;;;;;;;9.98;2.13;;;;;;;18.36;96.80;100744.28;5151721;27;20129;-89
2022/05/20 08:14:08;;;;;;;12.57;2.50;;;;;;;17.45;100.00;100740.66;5133402;27;20051;-89
2022/05/20 08:16:35;;;;;;;10.70;2.45;;;;;;;17.69;100.00;100717.94;5133318;27;20061;-89
2022/05/20 08:19:03;;;;;;;12.50;2.50;;;;;;;18.29;100.00;100750.97;5132973;27;20053;-89
2022/05/20 08:21:31;;;;;;;11.68;2.15;;;;;;;17.91;100.00;100733.28;5136716;27;20045;-89
2022/05/20 08:23:58;;;;;;;17.02;3.30;;;;;;;17.46;100.00;100723.84;5144578;27;20050;-89
2022/05/20 08:26:24;;;;;;;14.88;2.95;;;;;;;17.34;100.00;100719.38;5151787;27;20043;-89
2022/05/20 08:28:51;;;;;;;12.85;3.22;;;;;;;17.15;100.00;100740.06;5142973;27;20392;-89
2022/05/20 08:31:18;;;;;;;13.48;2.67;;;;;;;17.89;100.00;100736.03;5139238;27;20380;-89
2022/05/20 08:33:46;;;;;;;12.93;2.53;;;;;;;17.73;100.00;100708.88;5144169;27;20491;-89
2022/05/20 08:36:12;;;;;;;8.48;2.05;;;;;;;18.82;100.00;100722.47;5148461;27;20054;-89
2022/05/20 08:38:40;;;;;;;15.07;2.22;;;;;;;19.01;100.00;100692.78;5132727;27;20053;-89
2022/05/20 08:41:14;;;;;;;10.90;2.17;;;;;;;19.64;98.65;100706.66;5140238;27;20472;-88
2022/05/20 08:43:41;;;;;;;14.88;3.08;;;;;;;19.58;94.74;100699.13;5149112;27;20079;-88
2022/05/20 08:46:09;;;;;;;13.77;2.22;;;;;;;19.15;98.13;100702.38;5137656;27;20058;-89
2022/05/20 08:48:41;;;;;;;11.02;2.22;;;;;;;18.77;100.00;100708.69;5153619;27;20050;-88
2022/05/20 08:51:08;;;;;;;12.00;2.42;;;;;;;19.49;93.18;100707.81;5140884;27;20085;-88
2022/05/20 08:53:44;;;;;;;16.55;2.67;;;;;;;19.63;93.33;100718.22;5146168;27;20050;-89
2022/05/20 08:56:15;;;;;;;13.27;2.28;;;;;;;19.73;91.95;100721.91;5151666;27;20038;-87
2022/05/20 08:59:00;;;;;;;16.15;2.88;;;;;;;19.35;93.77;100664.59;5142894;27;20050;-89
2022/05/20 09:01:30;;;;;;;15.70;2.60;;;;;;;19.47;95.99;100701.78;5145688;27;20057;-86
2022/05/20 09:03:57;;;;;;;13.15;2.42;;;;;;;19.40;95.36;100680.16;5133227;27;20047;-88
2022/05/20 09:06:25;;;;;;;9.65;2.00;;;;;;;19.61;100.00;100690.13;5134174;27;20047;-89
2022/05/20 09:09:11;;;;;;;13.75;2.55;;;;;;;18.96;95.68;100713.50;5135413;27;20049;-89
2022/05/20 09:11:41;;;;;;;12.55;2.70;;;;;;;19.54;100.00;100706.50;5131042;27;20350;-89
2022/05/20 09:17:10;;;;;;;14.20;2.92;;;;;;;18.87;99.12;100699.09;5143801;27;20046;-89
2022/05/20 09:19:39;;;;;;;15.10;3.17;;;;;;;19.38;97.29;100683.91;5153678;27;20099;-88
2022/05/20 09:22:12;;;;;;;14.38;2.53;;;;;;;19.90;93.26;100693.19;5141897;27;20043;-89
2022/05/20 09:24:43;;;;;;;23.98;3.55;;;;;;;19.45;95.24;100687.78;5131951;28;20551;-88
2022/05/20 09:27:18;;;;;;;21.38;3.35;;;;;;;18.64;100.00;100692.78;5132595;27;20064;-87
2022/05/20 09:29:54;;;;;;;14.35;2.47;;;;;;;19.23;99.57;100683.22;5131447;27;20393;-88
2022/05/20 09:32:34;;;;;;;16.80;2.47;;;;;;;18.82;100.00;100685.31;5140618;27;20045;-88
2022/05/20 09:35:18;;;;;;;14.63;2.83;;;;;;;18.96;100.00;100686.97;5145089;27;20395;-89
2022/05/20 09:37:48;;;;;;;11.57;2.17;;;;;;;19.77;96.35;100674.72;5130763;27;20047;-89
2022/05/20 09:40:17;;;;;;;35.55;5.28;;;;;;;19.06;96.65;100639.38;5155874;27;20047;-89
2022/05/20 09:43:22;;;;;;;12.43;2.35;;;;;;;17.80;100.00;100651.88;5136306;27;20054;-88
2022/05/20 09:45:50;;;;;;;14.55;2.67;;;;;;;17.28;100.00;100653.63;5135426;27;20126;-88
2022/05/20 09:48:45;;;;;;;14.27;3.00;;;;;;;18.63;100.00;100669.91;5154826;27;20049;-88
2022/05/20 09:51:34;;;;;;;9.95;1.83;;;;;;;18.86;100.00;100640.88;5155274;27;20046;-88
2022/05/20 09:54:05;;;;;;;10.60;2.33;;;;;;;19.56;95.28;100666.56;5156966;27;20046;-89
2022/05/20 09:56:38;;;;;;;14.55;2.40;;;;;;;18.87;97.91;100632.78;5156481;27;20125;-89
2022/05/20 09:59:31;;;;;;;17.30;2.92;;;;;;;18.42;100.00;100651.06;5157631;27;20046;-89
2022/05/20 10:02:04;;;;;;;10.35;2.20;;;;;;;18.68;100.00;100640.38;5136783;27;20046;-89
2022/05/20 10:04:41;;;;;;;13.25;2.47;;;;;;;18.14;100.00;100591.25;5154987;27;20046;-89
2022/05/20 10:07:13;;;;;;;16.20;2.47;;;;;;;18.33;100.00;100614.63;5143386;27;20480;-89
2022/05/20 10:09:50;;;;;;;20.98;3.42;;;;;;;18.40;100.00;100642.41;5134798;27;20059;-88
2022/05/20 10:12:35;;;;;;;12.68;2.60;;;;;;;18.83;100.00;100627.84;5140436;27;20043;-89
2022/05/20 10:15:13;;;;;;;14.23;2.17;;;;;;;18.10;100.00;100592.44;5155507;27;20055;-89
2022/05/20 10:17:58;;;;;;;13.45;2.45;;;;;;;18.38;100.00;100601.91;5137771;27;20081;-89
2022/05/20 10:20:31;;;;;;;15.23;2.72;;;;;;;17.67;100.00;100606.00;5136578;27;20051;-89
2022/05/20 10:23:10;;;;;;;12.45;2.25;;;;;;;18.30;100.00;100605.09;5135243;27;20039;-89
2022/05/20 10:26:01;;;;;;;14.85;2.80;;;;;;;19.23;100.00;100614.22;5135086;27;20047;-89
2022/05/20 10:34:19;;;;;;;12.65;2.72;;;;;;;18.34;100.00;100595.97;5135790;27;20051;-89
2022/05/20 10:36:55;;;;;;;20.10;2.95;;;;;;;17.71;100.00;100600.41;5145146;27;20054;-89
2022/05/20 10:40:03;;;;;;;13.05;2.30;;;;;;;17.75;100.00;100571.91;5155343;27;20391;-89
2022/05/20 10:42:42;;;;;;;12.10;2.13;;;;;;;18.24;100.00;100588.78;5138500;27;20069;-89
2022/05/20 10:48:39;;;;;;;15.63;2.60;;;;;;;17.79;100.00;100599.84;5134445;27;20049;-89
2022/05/20 10:51:42;;;;;;;12.23;2.17;;;;;;;17.84;100.00;100579.19;5140074;27;20046;-89
2022/05/20 10:54:22;;;;;;;15.75;3.67;;;;;;;17.25;100.00;100585.06;5152597;27;20682;-89
2022/05/20 10:57:10;;;;;;;31.67;3.80;;;;;;;16.81;100.00;100584.41;5152079;27;20047;-89
2022/05/20 10:59:37;;;;;;;18.92;4.00;;;;;;;17.29;100.00;100581.22;5155996;27;20133;-89
2022/05/20 11:02:22;;;;;;;18.30;3.38;;;;;;;17.12;100.00;100595.59;5144170;27;20658;-89
2022/05/20 11:04:52;;;;;;;21.20;3.63;;;;;;;16.97;100.00;100583.41;5157175;27;20085;-88
2022/05/20 11:07:19;;;;;;;14.80;2.97;;;;;;;16.92;100.00;100577.59;5145182;27;20047;-88
2022/05/20 11:10:14;;;;;;;16.65;2.70;;;;;;;17.35;100.00;100579.97;5143590;27;20047;-90
2022/05/20 11:13:02;;;;;;;18.00;3.30;;;;;;;17.08;100.00;100581.72;5157692;27;20039;-89
2022/05/20 11:15:57;;;;;;;22.02;4.00;;;;;;;16.93;100.00;100572.19;5147926;27;20117;-89
2022/05/20 11:18:36;;;;;;;24.58;2.97;;;;;;;16.94;100.00;100571.22;5135351;27;20489;-89
2022/05/20 11:21:09;;;;;;;28.08;4.30;;;;;;;17.00;100.00;100573.47;5150426;27;20054;-89
2022/05/20 11:23:57;;;;;;;48.58;5.72;;;;;;;17.28;100.00;100566.28;5153578;27;20042;-89
2022/05/20 11:26:48;;;;;;;10.27;2.25;;;;;;;17.75;100.00;100561.31;5153408;27;20071;-89
2022/05/20 11:29:37;;;;;;;14.07;2.35;;;;;;;17.95;100.00;100562.56;5144840;27;20039;-87
2022/05/20 11:32:11;;;;;;;17.80;2.78;;;;;;;17.79;100.00;100554.84;5141296;27;20038;-87
2022/05/20 11:35:10;;;;;;;35.35;4.43;;;;;;;17.86;100.00;100560.59;5135595;27;20055;-88
2022/05/20 11:37:59;;;;;;;13.75;2.47;;;;;;;18.29;100.00;100555.72;5148516;27;20050;-87
2022/05/20 11:40:25;;;;;;;32.58;4.82;;;;;;;17.46;100.00;100557.09;5139220;27;20053;-89
2022/05/20 11:43:14;;;;;;;11.93;2.25;;;;;;;17.91;100.00;100556.66;5150421;27;20049;-89
2022/05/20 11:45:46;;;;;;;14.23;2.47;;;;;;;17.70;100.00;100556.34;5152909;27;20133;-89
2022/05/20 11:48:45;;;;;;;18.52;2.90;;;;;;;17.62;100.00;100556.03;5133181;27;20053;-89
2022/05/20 11:51:37;;;;;;;14.40;2.20;;;;;;;17.60;100.00;100557.94;5118210;27;20473;-89
2022/05/20 11:54:31;;;;;;;14.20;2.90;;;;;;;17.99;100.00;100548.19;5154723;27;20046;-87
2022/05/20 11:57:04;;;;;;;20.25;2.55;;;;;;;18.03;100.00;100544.34;5142589;27;20150;-89
2022/05/20 11:59:40;;;;;;;10.70;1.98;;;;;;;18.09;100.00;100545.69;5148714;27;20055;-90
2022/05/20 12:02:11;;;;;;;8.07;2.05;;;;;;;18.68;100.00;100524.56;5131733;27;20396;-89
2022/05/20 12:04:39;;;;;;;14.93;2.58;;;;;;;17.36;100.00;100487.25;5137876;27;20087;-89
2022/05/20 12:07:10;;;;;;;14.32;2.55;;;;;;;17.81;100.00;100524.66;5139496;27;20047;-89
2022/05/20 12:09:58;;;;;;;15.95;2.55;;;;;;;17.62;100.00;100492.50;5132536;27;20069;-89
2022/05/20 12:12:33;;;;;;;12.93;2.17;;;;;;;18.57;100.00;100521.84;5142965;27;20043;-86